Latest Coastal Weather Observations for Cape Willoughby

IDS60701

Issued at 8:11 am CDT Wednesday 1 December 2021 (issued every 10 minutes, with the page automatically refreshed every 10 minutes)

About coastal observations | Map of coastal stations | Coastal observations for SA | Marine services | Other Formats
Station Details ID: 022803 Name: CAPE WILLOUGHBY Lat: -35.84 Lon: 138.13 Height: 55.0 m
Data from the previous 72 hours. | See also: Recent months at Cape Willoughby
Date/Time
CDT
Wind Sea
Height
m
Swell Vis
km
Cloud Weather Temp
°C
Press
MSL
hPa
Rain since
9am
mm
Dir  Spd
kts
Gust
kts
Height
m
Period
s
Dir
01/08:00am S 16 19 - - - - - - - 15.4 1012.9 0.0
01/07:30am S 17 20 - - - - - - - 15.5 1012.3 0.0
01/07:00am S 17 21 - - - - - - - 15.4 1012.1 0.0
01/06:30am S 17 21 - - - - - - - 15.3 1011.3 0.0
01/06:00am S 17 20 - - - - - - - 15.6 1010.9 0.0
01/05:30am S 15 19 - - - - - - - 15.5 1010.6 0.0
01/05:00am SSW 15 21 - - - - - - - 15.5 1009.8 0.0
01/04:30am S 13 20 - - - - - - - 15.6 1009.5 0.0
01/04:00am SSW 12 17 - - - - - - - 15.7 1009.7 0.0
01/03:30am SSW 13 17 - - - - - - - 15.7 1009.2 0.0
01/03:00am SSW 16 19 - - - - - - - 16.0 1009.4 0.0
01/02:30am SW 18 20 - - - - - - - 16.3 1009.3 0.0
01/02:00am SW 15 18 - - - - - - - 16.6 1009.6 0.0
01/01:30am SW 14 17 - - - - - - - 16.8 1009.8 0.0
01/01:00am SW 18 21 - - - - - - - 17.1 1009.9 0.0
01/12:30am SW 17 21 - - - - - - - 17.8 1009.6 0.0
01/12:00am SW 13 15 - - - - - - - 18.9 1009.9 0.0
 
Date/Time
CDT
Wind Sea
Height
m
Swell Vis
km
Cloud Weather Temp
°C
Press
MSL
hPa
Rain since
9am
mm
Dir  Spd
kts
Gust
kts
Height
m
Period
s
Dir
30/11:30pm SSW 9 11 - - - - - - - 21.3 1010.0 0.0
30/11:00pm SSW 6 13 - - - - - - - 21.7 1010.3 0.0
30/10:30pm N 6 8 - - - - - - - 21.2 1009.5 0.0
30/10:00pm SSE 3 4 - - - - - - - 23.0 1009.2 0.0
30/09:30pm S 6 8 - - - - - - - 22.9 1008.8 0.0
30/09:00pm SSW 9 10 - - - - - - - 23.0 1009.1 0.0
30/08:30pm SW 9 10 - - - - - - - 23.1 1009.0 0.0
30/08:00pm SW 10 11 - - - - - - - 23.1 1008.9 0.0
30/07:30pm SW 11 13 - - - - - - - 23.7 1008.6 0.0
30/07:10pm WNW 10 17 - - - - - - - 23.7 1008.3 0.0
30/07:00pm NNW 5 6 - - - - - - - 28.8 1008.0 0.0
30/06:30pm NNW 6 7 - - - - - - - 29.4 1008.1 0.0
30/06:00pm NNW 8 9 - - - - - - - 30.5 1008.1 0.0
30/05:30pm NNW 11 12 - - - - - - - 30.3 1008.3 0.0
30/05:00pm NNW 13 15 - - - - - - - 30.7 1008.3 0.0
30/04:30pm NNW 13 16 - - - - - - - 30.4 1008.5 0.0
30/04:00pm NNW 14 16 - - - - - - - 29.8 1008.7 0.0
30/03:30pm NNW 15 18 - - - - - - - 30.0 1008.9 0.0
30/03:00pm NNW 18 21 - - - - - - - 28.5 1009.1 0.0
30/02:30pm NNW 18 22 - - - - - - - 29.4 1009.5 0.0
30/02:00pm NNW 17 23 - - - - - - - 30.0 1009.7 0.0
30/01:30pm NNW 19 24 - - - - - - - 27.3 1009.9 0.0
30/01:00pm NNW 20 25 - - - - - - - 29.9 1010.1 0.0
30/12:30pm N 17 21 - - - - - - - 29.2 1010.2 0.0
30/12:00pm NNW 19 23 - - - - - - - 28.2 1010.3 0.0
30/11:30am NNW 18 22 - - - - - - - 26.5 1010.5 0.0
30/11:00am NNW 17 21 - - - - - - - 27.0 1010.7 0.0
30/10:30am NNW 17 19 - - - - - - - 24.7 1010.8 0.0
30/10:00am N 17 20 - - - - - - - 24.8 1011.0 0.0
30/09:30am NNW 15 18 - - - - - - - 23.6 1011.3 0.0
30/09:00am N 15 17 - - - - - - - 23.5 1011.5 -
30/08:30am N 10 11 - - - - - - - 20.1 1011.6 -
30/08:00am NNE 9 11 - - - - - - - 19.9 1011.5 -
30/07:30am NE 13 15 - - - - - - - 19.5 1011.3 -
30/07:00am NNE 11 14 - - - - - - - 18.6 1011.2 -
30/06:30am NNE 12 15 - - - - - - - 17.8 1011.1 -
30/06:00am N 10 12 - - - - - - - 17.3 1011.1 -
30/05:30am N 9 10 - - - - - - - 17.1 1011.0 -
30/05:00am NNE 8 12 - - - - - - - 17.6 1011.1 -
30/04:30am NNE 8 13 - - - - - - - 17.5 1011.4 -
30/04:00am NE 9 11 - - - - - - - 16.9 1011.4 -
30/03:30am NE 10 12 - - - - - - - 16.7 1011.6 -
30/03:00am NE 8 10 - - - - - - - 16.4 1011.9 0.0
30/02:30am NE 8 10 - - - - - - - 16.3 1012.2 -
30/02:00am NE 7 8 - - - - - - - 16.2 1012.5 -
30/01:30am NE 6 7 - - - - - - - 15.9 1012.9 -
30/01:00am NNE 5 6 - - - - - - - 15.9 1013.4 -
30/12:30am NNE 5 6 - - - - - - - 15.6 1013.5 -
30/12:00am NNE 3 4 - - - - - - - 15.5 1013.9 -
 
Date/Time
CDT
Wind Sea
Height
m
Swell Vis
km
Cloud Weather Temp
°C
Press
MSL
hPa
Rain since
9am
mm
Dir  Spd
kts
Gust
kts
Height
m
Period
s
Dir
29/11:30pm N 4 5 - - - - - - - 15.1 1014.0 -
29/11:00pm NNE 3 4 - - - - - - - 15.4 1014.1 -
29/10:30pm NE 3 4 - - - - - - - 15.3 1014.2 -
29/10:00pm ENE 3 4 - - - - - - - 15.3 1014.1 -
29/09:30pm ESE 3 4 - - - - - - - 15.5 1014.1 -
29/09:00pm SE 4 4 - - - - - - - 15.7 1014.3 0.0
29/08:30pm SE 6 7 - - - - - - - 15.9 1014.3 -
29/08:00pm SE 5 6 - - - - - - - 16.3 1014.4 -
29/07:30pm SE 5 6 - - - - - - - 16.9 1014.6 -
29/07:00pm ESE 5 6 - - - - - - - 17.0 1014.6 -
29/06:30pm SE 5 7 - - - - - - - 17.5 1014.5 -
29/06:00pm SE 6 8 - - - - - - - 18.1 1014.5 -
29/05:30pm SE 7 9 - - - - - - - 18.0 1014.7 -
29/05:00pm SSE 8 10 - - - - - - - 17.4 1014.7 -
29/04:30pm S 9 11 - - - - - - - 18.0 1014.8 -
29/04:00pm S 8 10 - - - - - - - 18.5 1015.0 -
29/03:30pm S 10 12 - - - - - - - 18.3 1015.1 -
29/03:00pm S 7 9 - - - - - - - 18.7 1015.4 -
29/02:30pm SSE 5 5 - - - - - - - 18.0 1015.5 -
29/02:00pm S 5 6 - - - - - - - 18.6 1015.9 -
29/01:30pm S 6 7 - - - - - - - 18.7 1016.2 -
29/01:00pm S 6 8 - - - - - - - 18.4 1016.5 -
29/12:30pm S 5 7 - - - - - - - 18.1 1016.7 -
29/12:00pm SSE 6 9 - - - - - - Recent precip. 18.4 1016.8 -
29/11:30am N 6 9 - - - - - - - 17.5 1017.0 0.0
29/11:00am NNE 8 9 - - - - - - - 17.9 1016.9 0.0
29/10:30am N 8 9 - - - - - - - 17.3 1017.0 0.0
29/10:00am NNE 6 7 - - - - - - - 16.7 1017.1 0.0
29/09:30am NNE 4 6 - - - - - - - 15.8 1017.4 0.0
29/09:00am NNE 3 5 - - - - - - - 16.0 1017.4 0.0
29/08:30am E 2 3 - - - - - - - 15.8 1017.5 0.0
29/08:00am E 2 3 - - - - - - - 15.6 1017.5 0.0
29/07:30am SE 2 3 - - - - - - - 15.0 1017.2 0.0
29/07:00am SE 2 4 - - - - - - - 14.7 1017.1 0.0
29/06:30am SE 3 5 - - - - - - - 13.9 1017.0 0.0
29/06:00am SSE 4 5 - - - - - - - 13.6 1016.8 0.0
29/05:30am SSE 5 7 - - - - - - - 13.7 1016.7 0.0
29/05:00am SSE 6 7 - - - - - - - 13.7 1016.6 0.0
29/04:30am SSE 6 8 - - - - - - - 13.8 1016.6 0.0
29/04:00am SSE 6 8 - - - - - - - 13.6 1016.9 0.0
29/03:30am SSE 4 6 - - - - - - - 13.8 1017.2 0.0
29/03:00am SSE 5 6 - - - - - - - 13.7 1017.4 0.0
29/02:30am SSE 6 9 - - - - - - - 13.7 1017.5 0.0
29/02:00am SSE 6 7 - - - - - - - 13.7 1018.1 0.0
29/01:30am SE 6 9 - - - - - - - 13.9 1018.5 0.0
29/01:00am SSE 10 13 - - - - - - - 13.7 1018.4 0.0
29/12:30am SSE 10 14 - - - - - - - 14.0 1019.1 0.0
29/12:00am SSE 10 13 - - - - - - - 14.1 1019.0 0.0
 
Date/Time
CDT
Wind Sea
Height
m
Swell Vis
km
Cloud Weather Temp
°C
Press
MSL
hPa
Rain since
9am
mm
Dir  Spd
kts
Gust
kts
Height
m
Period
s
Dir
28/11:30pm SSE 11 13 - - - - - - - 14.2 1019.3 0.0
28/11:00pm S 11 16 - - - - - - - 14.1 1019.4 0.0
28/10:30pm S 10 13 - - - - - - - 14.3 1019.8 0.0
28/10:00pm SSE 8 10 - - - - - - - 14.3 1019.9 0.0
28/09:30pm SSE 7 10 - - - - - - - 14.4 1019.7 0.0
28/09:00pm SSE 8 11 - - - - - - - 14.5 1019.8 0.0
28/08:30pm SSE 8 10 - - - - - - - 14.7 1019.9 0.0
28/08:00pm SSE 10 13 - - - - - - - 14.8 1019.8 0.0
28/07:30pm SSE 10 12 - - - - - - - 15.1 1019.7 0.0
28/07:00pm SSE 10 13 - - - - - - - 15.4 1019.8 0.0
28/06:30pm SSE 11 13 - - - - - - - 15.5 1019.6 0.0
28/06:00pm SSE 10 13 - - - - - - - 15.6 1019.6 0.0
28/05:30pm SSE 11 13 - - - - - - - 15.9 1019.6 0.0
28/05:00pm SSE 10 13 - - - - - - - 16.0 1020.0 0.0
28/04:30pm SSE 11 13 - - - - - - - 16.1 1020.2 0.0
28/04:00pm SSE 10 12 - - - - - - - 15.9 1020.3 0.0
28/03:30pm SSE 11 16 - - - - - - - 16.2 1020.4 0.0
28/03:00pm SSE 10 12 - - - - - - - 16.2 1020.6 0.0
28/02:30pm SSE 10 12 - - - - - - - 16.3 1020.7 0.0
28/02:00pm SSE 9 10 - - - - - - - 16.5 1020.8 0.0
28/01:30pm SSE 8 10 - - - - - - - 16.7 1021.0 0.0
28/01:00pm ESE 6 9 - - - - - - - 18.2 1021.2 0.0
28/12:30pm E 6 7 - - - - - - - 17.6 1021.4 0.0
28/12:00pm E 7 9 - - - - - - - 17.1 1021.6 0.0
28/11:30am E 7 10 - - - - - - - 17.0 1021.8 0.0
28/11:00am E 9 11 - - - - - - - 17.2 1022.1 0.0
28/10:30am ESE 9 11 - - - - - - - 17.5 1022.5 0.0
28/10:00am ESE 10 12 - - - - - - - 16.6 1022.8 0.0
28/09:30am ESE 11 13 - - - - - - - 16.6 1022.8 0.0
28/09:00am ESE 12 15 - - - - - - - 16.1 1022.9 0.0
28/08:30am ESE 13 16 - - - - - - - 15.9 1022.8 0.0

Other formats

Comma delimited format used in spreadsheet applications
http://www.bom.gov.au/fwo/IDS60701/IDS60701.94822.axf

JavaScript Object Notation format (JSON) in row-major order
http://www.bom.gov.au/fwo/IDS60701/IDS60701.94822.json

Data quality

Most of these data are generated automatically and are frequently updated. Quality checks on data are not normally performed. It is possible for incorrect values to appear. Refer to information at About Latest Weather Observations and please check the disclaimer before using these data.